A39

Ak-Chin Regional Airport

Maricopa, Arizona, USA
METAR KA39 210955Z AUTO 12005KT 10SM SCT120 32/17 A2991 RMK AO2
Observed Flight Rules
Jul-21 @ 09:55 UTC (6 minutes ago) Visual Flight Rules
Wind Visibility Clouds
120° at 5 knots 10 miles
  • Scattered at 12,000' AGL
Temperatures Readings
Current 32°C / 90°F
Dewpoint 17°C / 63°F
Humidity 41%
Altimeter 29.91" Hg
Pressure 1013 hPa
Elevation 396
METAR KA39 210955Z AUTO 12005KT 10SM SCT120 32/17 A2991 RMK AO2
Observed Flight Rules
Jul-21 @ 09:55 UTC
(6 minutes ago)
VFR
Wind Visibility
120° at 5 knots 10 miles
Clouds
  • Scattered at 12,000' AGL
Temperature Dewpoint
32°C / 90°F 17°C / 63°F
Humidity Altimeter Pressure
41% 29.91" Hg 1013 hPa